createdAt,value
2018-09-26T00:00:31.806Z,19.68
2018-09-26T00:01:31.619Z,19.67
2018-09-26T00:02:31.553Z,19.67
2018-09-26T00:03:31.744Z,19.67
2018-09-26T00:04:31.515Z,19.66
2018-09-26T00:05:31.770Z,19.66
2018-09-26T00:06:31.758Z,19.66
2018-09-26T00:07:31.354Z,19.65
2018-09-26T00:08:31.789Z,19.65
2018-09-26T00:09:31.556Z,19.66
2018-09-26T00:10:31.803Z,19.66
2018-09-26T00:11:31.505Z,19.66
2018-09-26T00:12:31.698Z,19.66
2018-09-26T00:13:31.376Z,19.66
2018-09-26T00:14:31.659Z,19.65
2018-09-26T00:15:31.950Z,19.65
2018-09-26T00:16:31.950Z,19.66
2018-09-26T00:17:31.529Z,19.65
2018-09-26T00:18:31.465Z,19.64
2018-09-26T00:19:31.845Z,19.63
2018-09-26T00:20:31.596Z,19.64
2018-09-26T00:21:31.880Z,19.64
2018-09-26T00:22:31.763Z,19.64
2018-09-26T00:23:31.794Z,19.63
2018-09-26T00:24:31.787Z,19.63
2018-09-26T00:25:31.538Z,19.63
2018-09-26T00:26:31.525Z,19.65
2018-09-26T00:27:32.136Z,19.65
2018-09-26T00:28:31.471Z,19.64
2018-09-26T00:29:31.872Z,19.64
2018-09-26T00:30:31.543Z,19.64
2018-09-26T00:31:31.767Z,19.64
2018-09-26T00:32:31.538Z,19.64
2018-09-26T00:33:31.450Z,19.66
2018-09-26T00:34:31.358Z,19.65
2018-09-26T00:35:31.733Z,19.65
2018-09-26T00:36:31.448Z,19.64
2018-09-26T00:37:31.313Z,19.65
2018-09-26T00:38:31.664Z,19.64
2018-09-26T00:39:31.824Z,19.63
2018-09-26T00:40:31.642Z,19.63
2018-09-26T00:41:31.334Z,19.62
2018-09-26T00:42:31.364Z,19.63
2018-09-26T00:43:31.526Z,19.62
2018-09-26T00:44:31.714Z,19.63
2018-09-26T00:45:31.537Z,19.63
2018-09-26T00:46:31.631Z,19.62
2018-09-26T00:47:31.735Z,19.63
2018-09-26T00:48:31.599Z,19.62
2018-09-26T00:49:31.400Z,19.62
2018-09-26T00:50:31.732Z,19.62
2018-09-26T00:51:31.469Z,19.61
2018-09-26T00:52:31.472Z,19.63
2018-09-26T00:53:31.410Z,19.63
2018-09-26T00:54:31.463Z,19.63
2018-09-26T00:55:31.530Z,19.63
2018-09-26T00:56:31.491Z,19.63
2018-09-26T00:57:31.415Z,19.62
2018-09-26T00:58:31.423Z,19.62
2018-09-26T00:59:31.368Z,19.62
2018-09-26T01:00:31.561Z,19.61
2018-09-26T01:01:31.554Z,19.61
2018-09-26T01:02:31.455Z,19.6
2018-09-26T01:03:31.589Z,19.6
2018-09-26T01:04:31.621Z,19.6
2018-09-26T01:05:31.431Z,19.62
2018-09-26T01:06:31.527Z,19.61
2018-09-26T01:07:31.450Z,19.61
2018-09-26T01:08:31.682Z,19.6
2018-09-26T01:09:31.413Z,19.58
2018-09-26T01:10:31.461Z,19.6
2018-09-26T01:11:31.925Z,19.6
2018-09-26T01:12:31.821Z,19.6
2018-09-26T01:13:31.884Z,19.59
2018-09-26T01:14:31.547Z,19.59
2018-09-26T01:15:31.869Z,19.59
2018-09-26T01:16:31.427Z,19.59
2018-09-26T01:17:31.782Z,19.59
2018-09-26T01:18:31.986Z,19.6
2018-09-26T01:19:31.868Z,19.61
2018-09-26T01:20:31.602Z,19.59
2018-09-26T01:21:31.786Z,19.58
2018-09-26T01:22:31.810Z,19.59
2018-09-26T01:23:31.833Z,19.59
2018-09-26T01:24:31.806Z,19.59
2018-09-26T01:25:31.601Z,19.59
2018-09-26T01:26:31.459Z,19.59
2018-09-26T01:27:31.853Z,19.57
2018-09-26T01:28:31.612Z,19.59
2018-09-26T01:29:31.869Z,19.59
2018-09-26T01:30:31.882Z,19.59
2018-09-26T01:31:31.648Z,19.58
2018-09-26T01:32:31.385Z,19.59
2018-09-26T01:33:31.884Z,19.59
2018-09-26T01:34:31.508Z,19.58
2018-09-26T01:35:31.530Z,19.58
2018-09-26T01:36:31.521Z,19.57
2018-09-26T01:37:31.479Z,19.57
2018-09-26T01:38:31.541Z,19.57
2018-09-26T01:39:31.498Z,19.57
2018-09-26T01:40:31.523Z,19.57
2018-09-26T01:41:32.629Z,19.58
2018-09-26T01:42:31.524Z,19.59
2018-09-26T01:43:31.668Z,19.58
2018-09-26T01:44:32.002Z,19.57
2018-09-26T01:45:31.761Z,19.57
2018-09-26T01:46:31.446Z,19.57
2018-09-26T01:47:31.413Z,19.57
2018-09-26T01:48:31.503Z,19.57
2018-09-26T01:49:31.435Z,19.57
2018-09-26T01:50:31.778Z,19.57
2018-09-26T01:51:31.781Z,19.57
2018-09-26T01:52:31.381Z,19.57
2018-09-26T01:53:31.660Z,19.56
2018-09-26T01:54:31.627Z,19.56
2018-09-26T01:55:31.616Z,19.57
2018-09-26T01:56:31.864Z,19.57
2018-09-26T01:57:31.912Z,19.57
2018-09-26T01:58:31.368Z,19.57
2018-09-26T01:59:31.397Z,19.57
2018-09-26T02:00:31.781Z,19.57
2018-09-26T02:01:32.085Z,19.57
2018-09-26T02:02:31.580Z,19.56
2018-09-26T02:03:31.692Z,19.57
2018-09-26T02:04:31.482Z,19.57
2018-09-26T02:05:31.451Z,19.57
2018-09-26T02:06:31.555Z,19.56
2018-09-26T02:07:31.399Z,19.55
2018-09-26T02:08:31.616Z,19.55
2018-09-26T02:09:31.645Z,19.53
2018-09-26T02:10:31.366Z,19.54
2018-09-26T02:11:31.387Z,19.54
2018-09-26T02:12:31.397Z,19.54
2018-09-26T02:13:31.465Z,19.55
2018-09-26T02:14:31.319Z,19.54
2018-09-26T02:15:31.418Z,19.54
2018-09-26T02:16:31.338Z,19.54
2018-09-26T02:17:31.704Z,19.54
2018-09-26T02:18:31.554Z,19.54
2018-09-26T02:19:31.995Z,19.54
2018-09-26T02:20:31.702Z,19.53
2018-09-26T02:21:31.450Z,19.53
2018-09-26T02:22:31.465Z,19.53
2018-09-26T02:23:31.932Z,19.53
2018-09-26T02:24:31.550Z,19.53
2018-09-26T02:25:31.526Z,19.53
2018-09-26T02:26:31.586Z,19.52
2018-09-26T02:27:31.561Z,19.52
2018-09-26T02:28:31.837Z,19.51
2018-09-26T02:29:31.558Z,19.52
2018-09-26T02:30:31.791Z,19.52
2018-09-26T02:31:31.417Z,19.52
2018-09-26T02:32:31.417Z,19.52
2018-09-26T02:33:31.746Z,19.53
2018-09-26T02:34:31.450Z,19.52
2018-09-26T02:35:31.441Z,19.52
2018-09-26T02:36:31.734Z,19.53
2018-09-26T02:37:31.523Z,19.52
2018-09-26T02:38:31.442Z,19.52
2018-09-26T02:39:31.745Z,19.51
2018-09-26T02:40:31.783Z,19.51
2018-09-26T02:41:31.890Z,19.51
2018-09-26T02:42:31.605Z,19.51
2018-09-26T02:43:31.409Z,19.51
2018-09-26T02:44:31.397Z,19.51
2018-09-26T02:45:31.595Z,19.51
2018-09-26T02:46:31.604Z,19.51
2018-09-26T02:47:31.438Z,19.51
2018-09-26T02:48:31.610Z,19.51
2018-09-26T02:49:31.348Z,19.51
2018-09-26T02:50:31.494Z,19.51
2018-09-26T02:51:31.326Z,19.52
2018-09-26T02:52:32.480Z,19.51
2018-09-26T02:53:31.528Z,19.51
2018-09-26T02:54:31.515Z,19.51
2018-09-26T02:55:31.685Z,19.51
2018-09-26T02:56:31.537Z,19.51
2018-09-26T02:57:31.325Z,19.51
2018-09-26T02:58:31.616Z,19.51
2018-09-26T02:59:31.421Z,19.51
2018-09-26T03:00:31.524Z,19.52
2018-09-26T03:01:31.804Z,19.51
2018-09-26T03:02:31.279Z,19.52
2018-09-26T03:03:31.499Z,19.51
2018-09-26T03:04:31.557Z,19.51
2018-09-26T03:05:31.540Z,19.51
2018-09-26T03:06:31.636Z,19.51
2018-09-26T03:07:31.509Z,19.51
2018-09-26T03:08:31.869Z,19.51
2018-09-26T03:09:31.377Z,19.5
2018-09-26T03:10:31.843Z,19.51
2018-09-26T03:11:31.751Z,19.5
2018-09-26T03:12:31.324Z,19.51
2018-09-26T03:13:31.878Z,19.5
2018-09-26T03:14:31.463Z,19.5
2018-09-26T03:15:31.829Z,19.5
2018-09-26T03:16:31.610Z,19.48
2018-09-26T03:17:32.264Z,19.5
2018-09-26T03:18:31.499Z,19.5
2018-09-26T03:19:32.110Z,19.49
2018-09-26T03:20:31.363Z,19.48
2018-09-26T03:21:31.314Z,19.48
2018-09-26T03:22:31.839Z,19.48
2018-09-26T03:23:31.463Z,19.49
2018-09-26T03:24:31.686Z,19.49
2018-09-26T03:25:31.394Z,19.47
2018-09-26T03:26:31.467Z,19.49
2018-09-26T03:27:31.419Z,19.49
2018-09-26T03:28:31.377Z,19.5
2018-09-26T03:29:31.405Z,19.5
2018-09-26T03:30:31.556Z,19.51
2018-09-26T03:31:31.423Z,19.5
2018-09-26T03:32:31.372Z,19.5
2018-09-26T03:33:32.012Z,19.5
2018-09-26T03:34:31.227Z,19.5
2018-09-26T03:35:31.467Z,19.48
2018-09-26T03:36:31.544Z,19.49
2018-09-26T03:37:31.407Z,19.49
2018-09-26T03:38:31.488Z,19.48
2018-09-26T03:39:31.610Z,19.49
2018-09-26T03:40:31.282Z,19.48
2018-09-26T03:41:31.373Z,19.46
2018-09-26T03:42:31.769Z,19.47
2018-09-26T03:43:31.300Z,19.46
2018-09-26T03:44:31.903Z,19.46
2018-09-26T03:45:31.797Z,19.47
2018-09-26T03:46:31.499Z,19.47
2018-09-26T03:47:31.886Z,19.46
2018-09-26T03:48:31.757Z,19.46
2018-09-26T03:49:31.457Z,19.46
2018-09-26T03:50:31.565Z,19.45
2018-09-26T03:51:31.487Z,19.46
2018-09-26T03:52:31.482Z,19.46
2018-09-26T03:53:31.416Z,19.48
2018-09-26T03:54:31.576Z,19.47
2018-09-26T03:55:31.660Z,19.48
2018-09-26T03:56:31.350Z,19.47
2018-09-26T03:57:31.926Z,19.47
2018-09-26T03:58:31.624Z,19.45
2018-09-26T03:59:31.870Z,19.46
2018-09-26T04:00:31.431Z,19.46
2018-09-26T04:01:31.427Z,19.46
2018-09-26T04:02:31.524Z,19.45
2018-09-26T04:03:31.647Z,19.45
2018-09-26T04:04:31.554Z,19.45
2018-09-26T04:05:31.373Z,19.45
2018-09-26T04:06:31.454Z,19.45
2018-09-26T04:07:31.855Z,19.46
2018-09-26T04:08:31.379Z,19.46
2018-09-26T04:09:31.493Z,19.48
2018-09-26T04:10:31.419Z,19.46
2018-09-26T04:11:31.648Z,19.45
2018-09-26T04:12:32.062Z,19.45
2018-09-26T04:13:31.433Z,19.46
2018-09-26T04:14:31.465Z,19.45
2018-09-26T04:15:32.171Z,19.46
2018-09-26T04:16:31.745Z,19.45
2018-09-26T04:17:31.532Z,19.45
2018-09-26T04:18:31.345Z,19.45
2018-09-26T04:19:31.781Z,19.44
2018-09-26T04:20:32.335Z,19.45
2018-09-26T04:21:31.937Z,19.45
2018-09-26T04:22:31.341Z,19.45
2018-09-26T04:23:31.505Z,19.45
2018-09-26T04:24:31.666Z,19.45
2018-09-26T04:25:31.441Z,19.45
2018-09-26T04:26:33.244Z,19.44
2018-09-26T04:27:33.391Z,19.45
2018-09-26T04:28:31.570Z,19.45
2018-09-26T04:29:31.661Z,19.45
2018-09-26T04:30:32.812Z,19.45
2018-09-26T04:31:31.664Z,19.45
2018-09-26T04:32:31.917Z,19.45
2018-09-26T04:33:32.615Z,19.45
2018-09-26T04:34:31.842Z,19.44
2018-09-26T04:35:31.559Z,19.43
2018-09-26T04:36:31.538Z,19.43
2018-09-26T04:37:31.322Z,19.44
2018-09-26T04:38:32.290Z,19.43
2018-09-26T04:39:31.803Z,19.44
2018-09-26T04:40:31.576Z,19.44
2018-09-26T04:41:31.821Z,19.44
2018-09-26T04:42:31.293Z,19.45
2018-09-26T04:43:31.373Z,19.44
2018-09-26T04:44:31.430Z,19.43
2018-09-26T04:45:31.443Z,19.44
2018-09-26T04:46:31.422Z,19.45
2018-09-26T04:47:31.359Z,19.45
2018-09-26T04:48:31.324Z,19.45
2018-09-26T04:49:31.542Z,19.45
2018-09-26T04:50:31.295Z,19.44
2018-09-26T04:51:31.358Z,19.44
2018-09-26T04:52:31.406Z,19.43
2018-09-26T04:53:31.303Z,19.44
2018-09-26T04:54:31.508Z,19.44
2018-09-26T04:55:31.511Z,19.45
2018-09-26T04:56:31.439Z,19.44
2018-09-26T04:57:31.275Z,19.45
2018-09-26T04:58:31.294Z,19.45
2018-09-26T04:59:31.301Z,19.44
2018-09-26T05:00:31.258Z,19.45
2018-09-26T05:01:31.378Z,19.44
2018-09-26T05:02:31.419Z,19.45
2018-09-26T05:03:31.304Z,19.45
2018-09-26T05:04:31.300Z,19.44
2018-09-26T05:05:31.606Z,19.43
2018-09-26T05:06:31.255Z,19.44
2018-09-26T05:07:31.276Z,19.43
2018-09-26T05:08:31.283Z,19.44
2018-09-26T05:09:31.339Z,19.42
2018-09-26T05:10:31.503Z,19.41
2018-09-26T05:11:31.558Z,19.41
2018-09-26T05:12:31.434Z,19.42
2018-09-26T05:13:31.502Z,19.43
2018-09-26T05:14:31.636Z,19.42
2018-09-26T05:15:31.436Z,19.42
2018-09-26T05:16:31.488Z,19.42
2018-09-26T05:17:31.879Z,19.43
2018-09-26T05:18:31.377Z,19.42
2018-09-26T05:19:31.470Z,19.42
2018-09-26T05:20:31.440Z,19.43
2018-09-26T05:21:31.786Z,19.42
2018-09-26T05:22:31.545Z,19.45
2018-09-26T05:23:31.372Z,19.44
2018-09-26T05:24:31.366Z,19.43
2018-09-26T05:25:31.705Z,19.44
2018-09-26T05:26:31.527Z,19.44
2018-09-26T05:27:31.344Z,19.43
2018-09-26T05:28:31.714Z,19.43
2018-09-26T05:29:31.349Z,19.42
2018-09-26T05:30:32.441Z,19.44
2018-09-26T05:31:31.527Z,19.44
2018-09-26T05:32:31.865Z,19.43
2018-09-26T05:33:31.837Z,19.43
2018-09-26T05:34:31.408Z,19.43
2018-09-26T05:35:31.683Z,19.42
2018-09-26T05:36:31.453Z,19.42
2018-09-26T05:37:31.260Z,19.41
2018-09-26T05:38:31.607Z,19.42
2018-09-26T05:39:31.895Z,19.41
2018-09-26T05:40:31.510Z,19.42
2018-09-26T05:41:31.874Z,19.42
2018-09-26T05:42:31.334Z,19.44
2018-09-26T05:43:31.530Z,19.43
2018-09-26T05:44:31.636Z,19.42
2018-09-26T05:45:31.970Z,19.42
2018-09-26T05:46:31.305Z,19.41
2018-09-26T05:47:31.894Z,19.42
2018-09-26T05:48:31.421Z,19.42
2018-09-26T05:49:31.317Z,19.43
2018-09-26T05:50:31.541Z,19.43
2018-09-26T05:51:31.379Z,19.42
2018-09-26T05:52:31.367Z,19.41
2018-09-26T05:53:32.348Z,19.4
2018-09-26T05:54:31.408Z,19.41
2018-09-26T05:55:31.370Z,19.42
2018-09-26T05:56:31.664Z,19.42
2018-09-26T05:57:31.346Z,19.42
2018-09-26T05:58:31.697Z,19.42
2018-09-26T05:59:31.903Z,19.42
2018-09-26T06:00:31.433Z,19.43
2018-09-26T06:01:31.698Z,19.42
2018-09-26T06:02:31.292Z,19.42
2018-09-26T06:03:31.374Z,19.41
2018-09-26T06:04:31.771Z,19.4
2018-09-26T06:05:32.514Z,19.4
2018-09-26T06:06:31.403Z,19.41
2018-09-26T06:07:31.374Z,19.41
2018-09-26T06:08:31.333Z,19.41
2018-09-26T06:09:31.493Z,19.41
2018-09-26T06:10:31.467Z,19.42
2018-09-26T06:11:31.484Z,19.43
2018-09-26T06:12:31.386Z,19.43
2018-09-26T06:13:31.457Z,19.42
2018-09-26T06:14:31.237Z,19.41
2018-09-26T06:15:31.799Z,19.44
2018-09-26T06:16:31.257Z,19.44
2018-09-26T06:17:31.323Z,19.43
2018-09-26T06:18:31.396Z,19.42
2018-09-26T06:19:31.755Z,19.42
2018-09-26T06:20:31.340Z,19.43
2018-09-26T06:21:31.273Z,19.42
2018-09-26T06:22:31.510Z,19.44
2018-09-26T06:23:31.197Z,19.44
2018-09-26T06:24:31.821Z,19.44
2018-09-26T06:25:31.289Z,19.43
2018-09-26T06:26:31.554Z,19.41
2018-09-26T06:27:31.861Z,19.41
2018-09-26T06:28:31.201Z,19.41
2018-09-26T06:29:31.538Z,19.42
2018-09-26T06:30:31.377Z,19.41
2018-09-26T06:31:31.449Z,19.41
2018-09-26T06:32:31.797Z,19.4
2018-09-26T06:33:31.367Z,19.4
2018-09-26T06:34:31.465Z,19.41
2018-09-26T06:35:31.424Z,19.4
2018-09-26T06:36:31.448Z,19.4
2018-09-26T06:37:31.365Z,19.41
2018-09-26T06:38:31.493Z,19.41
2018-09-26T06:39:31.925Z,19.42
2018-09-26T06:40:32.577Z,19.4
2018-09-26T06:41:31.256Z,19.4
2018-09-26T06:42:32.353Z,19.4
2018-09-26T06:43:31.574Z,19.42
2018-09-26T06:44:32.269Z,19.41
2018-09-26T06:45:31.569Z,19.4
2018-09-26T06:46:31.391Z,19.4
2018-09-26T06:47:32.387Z,19.4
2018-09-26T06:48:31.365Z,19.4
2018-09-26T06:49:31.272Z,19.41
2018-09-26T06:50:31.409Z,19.41
2018-09-26T06:51:31.537Z,19.42
2018-09-26T06:52:31.484Z,19.42
2018-09-26T06:53:31.457Z,19.42
2018-09-26T06:54:31.459Z,19.4
2018-09-26T06:55:31.478Z,19.42
2018-09-26T06:56:31.349Z,19.42
2018-09-26T06:57:31.511Z,19.42
2018-09-26T06:58:31.805Z,19.41
2018-09-26T06:59:31.223Z,19.41
2018-09-26T07:00:31.193Z,19.41
2018-09-26T07:01:31.417Z,19.39
2018-09-26T07:02:31.342Z,19.39
2018-09-26T07:03:31.324Z,19.4
2018-09-26T07:04:31.300Z,19.39
2018-09-26T07:05:31.749Z,19.39
2018-09-26T07:06:31.806Z,19.39
2018-09-26T07:07:31.236Z,19.39
2018-09-26T07:08:31.694Z,19.39
2018-09-26T07:09:31.384Z,19.4
2018-09-26T07:10:31.286Z,19.4
2018-09-26T07:11:31.546Z,19.39
2018-09-26T07:12:31.476Z,19.4
2018-09-26T07:13:31.556Z,19.41
2018-09-26T07:14:31.327Z,19.39
2018-09-26T07:15:31.245Z,19.41
2018-09-26T07:16:31.443Z,19.41
2018-09-26T07:17:31.545Z,19.4
2018-09-26T07:18:31.318Z,19.41
2018-09-26T07:19:31.485Z,19.41
2018-09-26T07:20:31.298Z,19.41
2018-09-26T07:21:31.369Z,19.42
2018-09-26T07:22:31.413Z,19.42
2018-09-26T07:23:31.404Z,19.43
2018-09-26T07:24:31.356Z,19.42
2018-09-26T07:25:31.623Z,19.42
2018-09-26T07:26:31.326Z,19.41
2018-09-26T07:27:31.700Z,19.41
2018-09-26T07:28:31.554Z,19.4
2018-09-26T07:29:31.406Z,19.4
2018-09-26T07:30:31.305Z,19.39
2018-09-26T07:31:32.663Z,19.4
2018-09-26T07:32:31.574Z,19.44
2018-09-26T07:33:31.432Z,19.45
2018-09-26T07:34:31.345Z,19.44
2018-09-26T07:35:31.315Z,19.42
2018-09-26T07:36:31.512Z,19.42
2018-09-26T07:37:31.322Z,19.42
2018-09-26T07:38:32.488Z,19.42
2018-09-26T07:39:31.196Z,19.42
2018-09-26T07:40:31.376Z,19.43
2018-09-26T07:41:31.408Z,19.44
2018-09-26T07:42:31.509Z,19.45
2018-09-26T07:43:31.370Z,19.45
2018-09-26T07:44:31.345Z,19.47
2018-09-26T07:45:32.362Z,19.48
2018-09-26T07:46:31.470Z,19.47
2018-09-26T07:47:31.238Z,19.48
2018-09-26T07:48:31.421Z,19.51
2018-09-26T07:49:31.285Z,19.53
2018-09-26T07:50:31.313Z,19.52
2018-09-26T07:51:31.636Z,19.51
2018-09-26T07:52:31.624Z,19.52
2018-09-26T07:53:31.452Z,19.51
2018-09-26T07:54:31.375Z,19.52
2018-09-26T07:55:31.331Z,19.52
2018-09-26T07:56:31.566Z,19.55
2018-09-26T07:57:31.341Z,19.56
2018-09-26T07:58:31.451Z,19.57
2018-09-26T07:59:31.611Z,19.57
2018-09-26T08:00:31.458Z,19.56
2018-09-26T08:01:31.367Z,19.57
2018-09-26T08:02:31.506Z,19.57
2018-09-26T08:03:31.491Z,19.58
2018-09-26T08:04:31.453Z,19.6
2018-09-26T08:05:31.600Z,19.59
2018-09-26T08:06:31.448Z,19.57
2018-09-26T08:07:31.632Z,19.59
2018-09-26T08:08:31.390Z,19.61
2018-09-26T08:09:31.538Z,19.61
2018-09-26T08:10:31.456Z,19.62
2018-09-26T08:11:31.727Z,19.63
2018-09-26T08:12:31.193Z,19.66
2018-09-26T08:13:31.376Z,19.67
2018-09-26T08:14:31.299Z,19.68
2018-09-26T08:15:31.793Z,19.69
2018-09-26T08:16:31.315Z,19.69
2018-09-26T08:17:31.666Z,19.71
2018-09-26T08:18:31.923Z,19.75
2018-09-26T08:19:31.300Z,19.75
2018-09-26T08:20:31.516Z,19.76
2018-09-26T08:21:31.407Z,19.76
2018-09-26T08:22:31.373Z,19.77
2018-09-26T08:23:31.486Z,19.77
2018-09-26T08:24:31.468Z,19.77
2018-09-26T08:25:31.569Z,19.78
2018-09-26T08:26:31.434Z,19.81
2018-09-26T08:27:31.480Z,19.8
2018-09-26T08:28:31.574Z,19.81
2018-09-26T08:29:31.453Z,19.82
2018-09-26T08:30:31.377Z,19.82
2018-09-26T08:31:31.513Z,19.86
2018-09-26T08:32:31.338Z,19.84
2018-09-26T08:33:32.146Z,19.86
2018-09-26T08:34:31.449Z,19.85
2018-09-26T08:35:31.462Z,19.86
2018-09-26T08:36:31.463Z,19.83
2018-09-26T08:37:31.995Z,19.86
2018-09-26T08:38:31.610Z,19.89
2018-09-26T08:39:31.363Z,19.88
2018-09-26T08:40:31.647Z,19.88
2018-09-26T08:41:31.555Z,19.88
2018-09-26T08:42:31.484Z,19.88
2018-09-26T08:43:31.246Z,19.9
2018-09-26T08:44:32.239Z,19.89
2018-09-26T08:45:31.469Z,19.88
2018-09-26T08:46:31.492Z,19.88
2018-09-26T08:47:31.241Z,19.89
2018-09-26T08:48:31.582Z,19.88
2018-09-26T08:49:31.778Z,19.88
2018-09-26T08:50:31.424Z,19.91
2018-09-26T08:51:32.482Z,19.89
2018-09-26T08:52:31.382Z,19.88
2018-09-26T08:53:31.365Z,19.9
2018-09-26T08:54:31.816Z,19.88
2018-09-26T08:55:31.416Z,19.88
2018-09-26T08:56:31.313Z,19.88
2018-09-26T08:57:31.305Z,19.88
2018-09-26T08:58:31.316Z,19.88
2018-09-26T08:59:31.597Z,19.88
2018-09-26T09:00:31.412Z,19.87
2018-09-26T09:01:31.212Z,19.88
2018-09-26T09:02:31.360Z,19.86
2018-09-26T09:03:31.452Z,19.86
2018-09-26T09:04:31.313Z,19.85
2018-09-26T09:05:31.178Z,19.85
2018-09-26T09:06:31.187Z,19.85
2018-09-26T09:07:31.404Z,19.87
2018-09-26T09:08:00.439Z,19.87
2018-09-26T09:09:00.196Z,19.86
2018-09-26T09:10:00.350Z,19.87
2018-09-26T09:11:00.279Z,19.87
2018-09-26T09:12:00.318Z,19.84
2018-09-26T09:13:00.303Z,19.82
2018-09-26T09:14:00.315Z,19.84
2018-09-26T09:15:00.357Z,19.84
2018-09-26T09:16:01.377Z,19.85
2018-09-26T09:17:00.221Z,19.84
2018-09-26T09:18:00.200Z,19.83
2018-09-26T09:19:00.620Z,19.84
2018-09-26T09:20:00.459Z,19.84
2018-09-26T09:21:00.541Z,19.83
2018-09-26T09:22:00.866Z,19.87
2018-09-26T09:23:00.090Z,19.86
2018-09-26T09:24:00.145Z,19.83
2018-09-26T09:25:00.818Z,19.85
2018-09-26T09:26:00.300Z,19.82
2018-09-26T09:27:01.411Z,19.8
2018-09-26T09:28:00.286Z,19.8
2018-09-26T09:29:00.740Z,19.83
2018-09-26T09:30:01.157Z,19.82
2018-09-26T09:31:00.412Z,19.81
2018-09-26T09:32:00.538Z,19.81
2018-09-26T09:33:00.561Z,19.83
2018-09-26T09:34:00.458Z,19.81
2018-09-26T09:35:00.788Z,19.81
2018-09-26T09:36:00.367Z,19.79
2018-09-26T09:37:00.385Z,19.77
2018-09-26T09:38:00.588Z,19.79
2018-09-26T09:39:00.469Z,19.77
2018-09-26T09:40:00.475Z,19.77
2018-09-26T09:41:00.830Z,19.78
2018-09-26T09:42:00.448Z,19.79
2018-09-26T09:43:00.602Z,19.78
2018-09-26T09:44:01.332Z,19.76
2018-09-26T09:45:00.332Z,19.76
2018-09-26T09:46:00.415Z,19.78
2018-09-26T09:47:00.315Z,19.76
2018-09-26T09:48:00.333Z,19.75
2018-09-26T09:49:00.650Z,19.75
2018-09-26T09:50:00.439Z,19.75
2018-09-26T09:51:00.795Z,19.75
2018-09-26T09:52:00.449Z,19.75
2018-09-26T09:53:00.424Z,19.75
2018-09-26T09:54:00.125Z,19.74
2018-09-26T09:55:00.154Z,19.74
2018-09-26T09:56:07.791Z,19.82
2018-09-26T09:57:12.955Z,19.88
2018-09-26T09:58:12.663Z,19.91
2018-09-26T09:59:12.688Z,19.94
2018-09-26T10:00:12.487Z,19.94
2018-09-26T10:01:12.676Z,19.96
2018-09-26T10:02:12.740Z,19.98
2018-09-26T10:03:12.856Z,19.99
2018-09-26T10:04:12.726Z,20
2018-09-26T10:05:13.103Z,20.01
2018-09-26T10:06:19.969Z,20.1
2018-09-26T10:07:19.428Z,20.01
2018-09-26T10:08:20.230Z,19.94
2018-09-26T10:09:19.281Z,19.93
2018-09-26T10:10:19.292Z,19.89
2018-09-26T10:11:19.288Z,19.88
2018-09-26T10:12:19.258Z,19.88
2018-09-26T10:13:19.933Z,19.86
2018-09-26T10:14:20.410Z,19.85
2018-09-26T10:15:19.134Z,19.83
2018-09-26T10:16:19.396Z,19.85
2018-09-26T10:17:19.449Z,19.83
2018-09-26T10:18:19.452Z,19.84
2018-09-26T10:19:19.288Z,19.87
2018-09-26T10:20:20.097Z,19.87
2018-09-26T10:21:19.470Z,19.86
2018-09-26T10:22:19.712Z,19.85
2018-09-26T10:23:19.459Z,19.82
2018-09-26T10:24:19.469Z,19.85
2018-09-26T10:25:19.792Z,19.84
2018-09-26T10:26:20.030Z,19.84
2018-09-26T10:27:19.330Z,19.86
2018-09-26T10:28:19.658Z,19.84
2018-09-26T10:29:19.347Z,19.86
2018-09-26T10:30:19.366Z,19.88
2018-09-26T10:31:19.241Z,19.83
2018-09-26T10:32:20.355Z,19.87
2018-09-26T10:33:19.450Z,19.84
2018-09-26T10:34:19.320Z,19.83
2018-09-26T10:35:19.535Z,19.82
2018-09-26T10:36:19.245Z,19.82
2018-09-26T10:37:19.805Z,19.82
2018-09-26T10:38:20.262Z,19.82
2018-09-26T10:39:19.247Z,19.82
2018-09-26T10:40:19.226Z,19.81
2018-09-26T10:41:19.464Z,19.81
2018-09-26T10:42:19.714Z,19.82
2018-09-26T10:43:19.803Z,19.81
2018-09-26T10:44:19.819Z,19.83
2018-09-26T10:45:19.490Z,19.81
2018-09-26T10:46:19.452Z,19.81
2018-09-26T10:47:19.619Z,19.8
2018-09-26T10:48:19.277Z,19.78
2018-09-26T10:49:19.287Z,19.77
2018-09-26T10:50:19.900Z,19.77
2018-09-26T10:51:19.460Z,19.76
2018-09-26T10:52:19.232Z,19.75
2018-09-26T10:53:19.663Z,19.74
2018-09-26T10:54:19.323Z,19.75
2018-09-26T10:55:19.743Z,19.73
2018-09-26T10:56:20.478Z,19.73
2018-09-26T10:57:19.492Z,19.73
2018-09-26T10:58:19.426Z,19.73
2018-09-26T10:59:19.216Z,19.72
2018-09-26T11:00:19.329Z,19.73
2018-09-26T11:01:19.518Z,19.73
2018-09-26T11:02:20.108Z,19.74
2018-09-26T11:03:19.229Z,19.75
2018-09-26T11:04:20.117Z,19.76
2018-09-26T11:05:19.169Z,19.75
2018-09-26T11:06:19.470Z,19.75
2018-09-26T11:07:19.409Z,19.79
2018-09-26T11:08:19.712Z,19.76
2018-09-26T11:09:19.328Z,19.77
2018-09-26T11:10:19.884Z,19.76
2018-09-26T11:11:19.339Z,19.75
2018-09-26T11:12:19.417Z,19.75
2018-09-26T11:13:19.231Z,19.76
2018-09-26T11:14:19.828Z,19.8
2018-09-26T11:15:20.271Z,19.8
2018-09-26T11:16:20.018Z,19.81
2018-09-26T11:17:19.221Z,19.81
2018-09-26T11:18:19.429Z,19.85
2018-09-26T11:19:19.324Z,19.84
2018-09-26T11:20:20.561Z,19.85
2018-09-26T11:21:20.101Z,19.87
2018-09-26T11:22:20.422Z,19.89
2018-09-26T11:23:19.699Z,19.87
2018-09-26T11:24:19.336Z,19.88
2018-09-26T11:25:19.436Z,19.88
2018-09-26T11:26:20.897Z,19.88
2018-09-26T11:27:19.297Z,19.87
2018-09-26T11:28:20.272Z,19.88
2018-09-26T11:29:19.362Z,19.89
2018-09-26T11:30:19.335Z,19.91
2018-09-26T11:31:19.444Z,19.92
2018-09-26T11:32:20.189Z,19.91
2018-09-26T11:33:20.089Z,19.9
2018-09-26T11:34:20.117Z,19.94
2018-09-26T11:35:19.279Z,19.91
2018-09-26T11:36:19.379Z,19.91
2018-09-26T11:37:19.199Z,19.92
2018-09-26T11:38:20.581Z,19.9
2018-09-26T11:39:19.449Z,19.88
2018-09-26T11:40:19.952Z,19.88
2018-09-26T11:41:19.164Z,19.89
2018-09-26T11:42:19.190Z,19.88
2018-09-26T11:43:19.260Z,19.85
2018-09-26T11:44:20.280Z,19.84
2018-09-26T11:45:19.517Z,19.81
2018-09-26T11:46:20.343Z,19.81
2018-09-26T11:47:19.678Z,19.82
2018-09-26T11:48:19.404Z,19.81
2018-09-26T11:49:19.340Z,19.81
2018-09-26T11:50:20.041Z,19.78
2018-09-26T11:51:19.283Z,19.78
2018-09-26T11:52:20.341Z,19.77
2018-09-26T11:53:19.248Z,19.76
2018-09-26T11:54:19.534Z,19.76
2018-09-26T11:55:19.490Z,19.75
2018-09-26T11:56:19.680Z,19.76
2018-09-26T11:57:19.492Z,19.77
2018-09-26T11:58:19.994Z,19.76
2018-09-26T11:59:19.578Z,19.75
2018-09-26T12:00:19.512Z,19.76
2018-09-26T12:01:19.329Z,19.77
2018-09-26T12:02:20.204Z,19.75
2018-09-26T12:03:19.226Z,19.75
2018-09-26T12:04:20.095Z,19.75
2018-09-26T12:05:19.344Z,19.75
2018-09-26T12:06:20.224Z,19.74
2018-09-26T12:07:19.910Z,19.73
2018-09-26T12:08:20.245Z,19.73
2018-09-26T12:09:19.336Z,19.72
2018-09-26T12:10:20.195Z,19.74
2018-09-26T12:11:19.590Z,19.72
2018-09-26T12:12:20.049Z,19.74
2018-09-26T12:13:19.361Z,19.74
2018-09-26T12:14:19.389Z,19.75
2018-09-26T12:15:20.090Z,19.77
2018-09-26T12:16:20.006Z,19.77
2018-09-26T12:17:19.687Z,19.81
2018-09-26T12:18:20.133Z,19.81
2018-09-26T12:19:20.051Z,19.83
2018-09-26T12:20:19.719Z,19.88
2018-09-26T12:21:31.086Z,19.9
2018-09-26T12:22:20.675Z,19.93
2018-09-26T12:23:19.315Z,19.92
2018-09-26T12:24:20.081Z,19.93
2018-09-26T12:25:19.880Z,19.91
2018-09-26T12:26:19.328Z,19.91
2018-09-26T12:27:19.314Z,19.9
2018-09-26T12:28:19.940Z,19.91
2018-09-26T12:29:19.246Z,19.89
2018-09-26T12:30:21.223Z,19.9
2018-09-26T12:31:19.460Z,19.91
2018-09-26T12:32:19.133Z,19.88
2018-09-26T12:33:19.311Z,19.91
2018-09-26T12:34:19.843Z,19.89
2018-09-26T12:35:19.229Z,19.88
2018-09-26T12:36:19.760Z,19.86
2018-09-26T12:37:19.254Z,19.85
2018-09-26T12:38:19.296Z,19.87
2018-09-26T12:39:19.206Z,19.86
2018-09-26T12:40:20.201Z,19.83
2018-09-26T12:41:19.151Z,19.84
2018-09-26T12:42:20.502Z,19.85
2018-09-26T12:43:19.200Z,19.82
2018-09-26T12:44:19.168Z,19.82
2018-09-26T12:45:19.345Z,19.83
2018-09-26T12:46:20.153Z,19.84
2018-09-26T12:47:19.852Z,19.87
2018-09-26T12:48:19.756Z,19.88
2018-09-26T12:49:19.346Z,19.89
2018-09-26T12:50:19.412Z,19.86
2018-09-26T12:51:19.141Z,19.87
2018-09-26T12:52:20.056Z,19.87
2018-09-26T12:53:19.226Z,19.86
2018-09-26T12:54:19.474Z,19.86